Decoded Metar for ETIH (HOHENFELS in GERMANY) (IATA:N/A) | Meteo·Mobile Aviation Weather
aviador You're here:

ETIH Decoded Metar

HOHENFELS in GERMANY
Report Time2019-10-18 12:56:00
UTC Time2019-10-18 13:16:00
Flight Rules vfr VFR
Wind130° at 06 kt
W.Decomp.*RWY 09: 4.7 kt HW 3.8 kt RCW
Visibility9999 m
Phenomena:N/A
Clouds:N/A
Expected CloudBase > 400 ft AGL from Temp-Dew spread
CeilingNone
Temp17°C (ISA +5)
Dew Point16°C (94% RH)
AAT16.8°C
QNH1013 hPa
Density Alt2,270 ft
Elevation1,450 ft
Report Wrong Elevation
Raw Report
METAR ETIH 181256Z AUTO 13006KT 9999 CLR 17/16 A2990 RMK AO2 SLP124
T01730160=

Extra information for ETIH:More info

Metar Taf Metar & Taf Last 4 Metars F.Rules Stats Wind Profile Meteogram Temp Stats Airport Information Weather charts Add Link Nearby VenuesMetar ALERT Operation Metar Decoded Social comments